Time,TemperatureF,DewpointF,PressureIn,WindDirection,WindDirectionDegrees,WindSpeedMPH,WindSpeedGustMPH,Humidity,HourlyPrecipIn,Conditions,Clouds,dailyrainin,SoftwareType,DateUTC
2013-11-29 00:21:00,34.0,23.0,30.06,SSW,200,0.0,0.0,65,0.00,,,0.00,,2013-11-29 08:21:00,
2013-11-29 00:52:00,34.0,25.0,30.06,South,180,0.0,0.0,69,0.00,,,0.00,,2013-11-29 08:52:00,
2013-11-29 01:52:00,33.0,23.0,30.09,SW,220,0.0,0.0,66,0.00,,,0.00,,2013-11-29 09:52:00,
2013-11-29 02:23:00,33.0,23.0,30.09,NNW,340,0.0,0.0,66,0.00,,,0.00,,2013-11-29 10:23:00,
2013-11-29 02:52:00,32.0,22.0,30.10,NNE,20,0.0,0.0,66,0.00,,,0.00,,2013-11-29 10:52:00,
2013-11-29 03:21:00,32.0,22.0,30.10,North,360,0.0,0.0,66,0.00,,,0.00,,2013-11-29 11:21:00,
2013-11-29 03:52:00,32.0,22.0,30.10,NNE,20,0.0,0.0,66,0.00,,,0.00,,2013-11-29 11:52:00,
2013-11-29 04:21:00,31.0,21.0,30.09,North,360,0.0,0.0,67,0.00,,,0.00,,2013-11-29 12:21:00,
2013-11-29 05:22:00,32.0,22.0,30.10,NNW,340,0.0,0.0,67,0.00,,,0.00,,2013-11-29 13:22:00,
2013-11-29 05:52:00,32.0,23.0,30.09,NNW,340,0.0,0.0,68,0.00,,,0.00,,2013-11-29 13:52:00,
2013-11-29 06:22:00,33.0,24.0,30.10,SSW,200,0.0,0.0,69,0.00,,,0.00,,2013-11-29 14:22:00,
2013-11-29 06:52:00,34.0,26.0,30.10,NNW,340,0.0,0.0,72,0.00,,,0.00,,2013-11-29 14:52:00,
2013-11-29 07:21:00,35.0,27.0,30.11,North,360,0.0,0.0,71,0.00,,,0.00,,2013-11-29 15:21:00,
2013-11-29 07:53:00,36.0,28.0,30.11,NNW,340,0.0,0.0,72,0.00,,,0.00,,2013-11-29 15:53:00,
2013-11-29 08:23:00,38.0,30.0,30.13,NE,55,1.0,4.0,73,0.00,,,0.00,,2013-11-29 16:23:00,
2013-11-29 08:52:00,39.0,31.0,30.15,NNE,20,0.0,0.0,72,0.00,,,0.00,,2013-11-29 16:52:00,
2013-11-29 09:22:00,40.0,31.0,30.16,NNE,30,0.0,0.0,71,0.00,,,0.00,,2013-11-29 17:22:00,
2013-11-29 09:52:00,41.0,32.0,30.16,NE,40,0.0,0.0,70,0.00,,,0.00,,2013-11-29 17:52:00,
2013-11-29 10:21:00,42.0,33.0,30.16,NNE,30,0.0,1.0,69,0.00,,,0.00,,2013-11-29 18:21:00,
2013-11-29 10:52:00,43.0,33.0,30.15,NNE,27,1.0,5.0,67,0.00,,,0.00,,2013-11-29 18:52:00,
2013-11-29 11:21:00,44.0,33.0,30.15,NNE,28,3.0,5.0,64,0.00,,,0.00,,2013-11-29 19:21:00,
2013-11-29 11:52:00,45.0,33.0,30.15,South,177,0.0,2.0,62,0.00,,,0.00,,2013-11-29 19:52:00,
2013-11-29 12:22:00,45.0,32.0,30.15,SSE,160,0.0,5.0,60,0.00,,,0.00,,2013-11-29 20:22:00,
2013-11-29 12:52:00,46.0,33.0,30.14,NE,40,0.0,3.0,60,0.00,,,0.00,,2013-11-29 20:52:00,
2013-11-29 13:21:00,46.0,32.0,30.14,SSE,160,0.0,5.0,58,0.00,,,0.00,,2013-11-29 21:21:00,
2013-11-29 13:53:00,47.0,32.0,30.14,NE,46,3.0,6.0,56,0.00,,,0.00,,2013-11-29 21:53:00,
2013-11-29 14:23:00,47.0,32.0,30.13,NE,46,0.0,4.0,56,0.00,,,0.00,,2013-11-29 22:23:00,
2013-11-29 14:52:00,47.0,33.0,30.14,NNE,20,0.0,3.0,57,0.00,,,0.00,,2013-11-29 22:52:00,
2013-11-29 15:22:00,47.0,31.0,30.14,NNE,31,1.0,4.0,54,0.00,,,0.00,,2013-11-29 23:22:00,
2013-11-29 15:52:00,47.0,31.0,30.15,SSW,200,0.0,0.0,54,0.00,,,0.00,,2013-11-29 23:52:00,
2013-11-29 16:21:00,46.0,31.0,30.15,NNE,20,0.0,0.0,56,0.00,,,0.00,,2013-11-30 00:21:00,
2013-11-29 17:21:00,45.0,30.0,30.15,SSW,200,0.0,0.0,56,0.00,,,0.00,,2013-11-30 01:21:00,
2013-11-29 17:52:00,45.0,32.0,30.16,NE,40,0.0,0.0,59,0.00,,,0.00,,2013-11-30 01:52:00,
2013-11-29 18:21:00,45.0,32.0,30.17,NNE,20,0.0,0.0,59,0.00,,,0.00,,2013-11-30 02:21:00,
2013-11-29 18:52:00,44.0,31.0,30.18,SSW,200,0.0,0.0,61,0.00,,,0.00,,2013-11-30 02:52:00,
2013-11-29 19:21:00,44.0,31.0,30.18,SSW,200,0.0,0.0,61,0.00,,,0.00,,2013-11-30 03:21:00,
2013-11-29 19:53:00,44.0,32.0,30.19,SSE,160,0.0,0.0,62,0.00,,,0.00,,2013-11-30 03:53:00,
2013-11-29 20:23:00,44.0,32.0,30.17,North,360,0.0,0.0,63,0.00,,,0.00,,2013-11-30 04:23:00,
2013-11-29 20:53:00,44.0,33.0,30.16,North,360,0.0,0.0,65,0.01,,,0.01,,2013-11-30 04:53:00,
2013-11-29 21:22:00,44.0,34.0,30.18,North,350,0.0,0.0,67,0.01,,,0.01,,2013-11-30 05:22:00,
2013-11-29 21:52:00,44.0,34.0,30.17,NNE,20,0.0,0.0,67,0.00,,,0.01,,2013-11-30 05:52:00,
2013-11-29 22:22:00,43.0,33.0,30.16,SW,230,0.0,0.0,68,0.00,,,0.01,,2013-11-30 06:22:00,
2013-11-29 22:52:00,44.0,34.0,30.15,SSW,200,0.0,1.0,68,0.00,,,0.01,,2013-11-30 06:52:00,
2013-11-29 23:21:00,43.0,33.0,30.16,SSE,160,0.0,4.0,68,0.00,,,0.01,,2013-11-30 07:21:00,
2013-11-29 23:51:00,43.0,33.0,30.17,ENE,58,0.0,1.0,67,0.00,,,0.01,,2013-11-30 07:51:00,